createdAt,value
2016-12-25T00:00:04.318Z,1013.9
2016-12-25T00:00:53.102Z,1013.91
2016-12-25T00:01:42.018Z,1013.92
2016-12-25T00:02:30.584Z,1013.98
2016-12-25T00:03:19.306Z,1014
2016-12-25T00:04:08.099Z,1014.08
2016-12-25T00:04:56.986Z,1014.14
2016-12-25T00:05:45.606Z,1014.17
2016-12-25T00:06:34.162Z,1014.27
2016-12-25T00:07:23.161Z,1014.2
2016-12-25T00:08:11.648Z,1014.22
2016-12-25T00:09:00.091Z,1014.16
2016-12-25T00:09:49.105Z,1014.15
2016-12-25T00:10:37.729Z,1014.15
2016-12-25T00:11:26.383Z,1014.17
2016-12-25T00:12:15.451Z,1014.18
2016-12-25T00:13:03.867Z,1014.2
2016-12-25T00:13:52.825Z,1014.41
2016-12-25T00:14:41.058Z,1014.17
2016-12-25T00:15:30.134Z,1014.23
2016-12-25T00:16:18.382Z,1014.24
2016-12-25T00:17:07.142Z,1014.24
2016-12-25T00:17:55.775Z,1014.07
2016-12-25T00:18:44.765Z,1014.06
2016-12-25T00:19:33.287Z,1014.05
2016-12-25T00:20:21.857Z,1014.17
2016-12-25T00:21:10.596Z,1014.17
2016-12-25T00:21:59.630Z,1014.28
2016-12-25T00:22:47.802Z,1014.35
2016-12-25T00:23:36.974Z,1014.06
2016-12-25T00:24:25.696Z,1014.09
2016-12-25T00:25:13.800Z,1014.2
2016-12-25T00:26:02.903Z,1014.11
2016-12-25T00:26:51.619Z,1014.09
2016-12-25T00:27:39.739Z,1013.94
2016-12-25T00:28:28.930Z,1013.96
2016-12-25T00:29:17.637Z,1014.06
2016-12-25T00:30:05.945Z,1013.93
2016-12-25T00:30:54.639Z,1014.06
2016-12-25T00:31:43.571Z,1013.95
2016-12-25T00:32:32.177Z,1013.89
2016-12-25T00:33:20.645Z,1013.9
2016-12-25T00:34:09.181Z,1014.12
2016-12-25T00:34:58.124Z,1014.03
2016-12-25T00:35:47.063Z,1014.15
2016-12-25T00:36:35.301Z,1014.41
2016-12-25T00:37:24.263Z,1014.22
2016-12-25T00:38:12.517Z,1014.21
2016-12-25T00:39:01.499Z,1014.23
2016-12-25T00:39:49.844Z,1014.15
2016-12-25T00:40:38.553Z,1014.14
2016-12-25T00:41:27.156Z,1014.27
2016-12-25T00:42:15.879Z,1014.2
2016-12-25T00:43:04.436Z,1014.23
2016-12-25T00:43:53.615Z,1014.32
2016-12-25T00:44:42.275Z,1014.29
2016-12-25T00:45:30.277Z,1014.33
2016-12-25T00:46:19.466Z,1014.33
2016-12-25T00:47:07.826Z,1014.33
2016-12-25T00:47:57.092Z,1014.28
2016-12-25T00:48:45.201Z,1014.36
2016-12-25T00:49:28.516Z,1014.36
2016-12-25T00:50:10.944Z,1014.31
2016-12-25T00:50:51.442Z,1014.38
2016-12-25T00:51:31.906Z,1014.44
2016-12-25T00:52:13.262Z,1014.45
2016-12-25T00:52:56.185Z,1014.4
2016-12-25T00:53:36.678Z,1014.55
2016-12-25T00:54:17.191Z,1014.54
2016-12-25T00:54:57.689Z,1014.39
2016-12-25T00:55:38.133Z,1014.39
2016-12-25T00:56:18.670Z,1014.41
2016-12-25T00:56:59.189Z,1014.37
2016-12-25T00:57:39.651Z,1014.45
2016-12-25T00:58:21.133Z,1014.45
2016-12-25T00:59:01.593Z,1014.46
2016-12-25T00:59:42.762Z,1014.42
2016-12-25T01:00:24.088Z,1014.45
2016-12-25T01:01:04.547Z,1014.47
2016-12-25T01:01:45.015Z,1014.46
2016-12-25T01:02:27.179Z,1014.58
2016-12-25T01:03:08.260Z,1014.48
2016-12-25T01:03:48.774Z,1014.49
2016-12-25T01:04:34.201Z,1014.58
2016-12-25T01:05:17.334Z,1014.62
2016-12-25T01:05:57.768Z,1014.57
2016-12-25T01:06:38.303Z,1014.69
2016-12-25T01:07:18.725Z,1014.64
2016-12-25T01:07:59.207Z,1014.69
2016-12-25T01:08:39.720Z,1014.65
2016-12-25T01:09:20.177Z,1014.74
2016-12-25T01:10:00.670Z,1014.8
2016-12-25T01:10:45.480Z,1014.79
2016-12-25T01:11:25.934Z,1014.78
2016-12-25T01:12:06.449Z,1014.73
2016-12-25T01:12:46.915Z,1014.66
2016-12-25T01:13:28.329Z,1014.67
2016-12-25T01:14:08.869Z,1014.66
2016-12-25T01:14:49.310Z,1014.66
2016-12-25T01:15:29.818Z,1014.6
2016-12-25T01:16:13.456Z,1014.66
2016-12-25T01:16:53.943Z,1014.61
2016-12-25T01:17:34.459Z,1014.63
2016-12-25T01:18:14.972Z,1014.51
2016-12-25T01:18:55.448Z,1014.53
2016-12-25T01:19:35.973Z,1014.53
2016-12-25T01:20:17.230Z,1014.43
2016-12-25T01:20:57.737Z,1014.38
2016-12-25T01:21:38.242Z,1014.42
2016-12-25T01:22:18.696Z,1014.37
2016-12-25T01:22:59.764Z,1014.34
2016-12-25T01:23:40.249Z,1014.29
2016-12-25T01:24:20.687Z,1014.28
2016-12-25T01:25:01.968Z,1014.28
2016-12-25T01:25:44.957Z,1014.29
2016-12-25T01:26:25.427Z,1014.37
2016-12-25T01:27:05.967Z,1014.36
2016-12-25T01:27:46.440Z,1014.37
2016-12-25T01:28:27.888Z,1014.36
2016-12-25T01:29:12.115Z,1014.39
2016-12-25T01:29:52.559Z,1014.45
2016-12-25T01:30:33.758Z,1014.42
2016-12-25T01:31:14.228Z,1014.4
2016-12-25T01:31:54.707Z,1014.44
2016-12-25T01:32:35.665Z,1014.49
2016-12-25T01:33:16.856Z,1014.41
2016-12-25T01:33:58.098Z,1014.43
2016-12-25T01:34:38.558Z,1014.42
2016-12-25T01:35:19.874Z,1014.42
2016-12-25T01:36:02.086Z,1014.51
2016-12-25T01:36:42.560Z,1014.54
2016-12-25T01:37:23.028Z,1014.48
2016-12-25T01:38:04.473Z,1014.56
2016-12-25T01:38:45.860Z,1014.53
2016-12-25T01:39:26.315Z,1014.47
2016-12-25T01:40:06.820Z,1014.43
2016-12-25T01:40:47.292Z,1014.49
2016-12-25T01:41:30.118Z,1014.43
2016-12-25T01:42:11.264Z,1014.38
2016-12-25T01:42:51.759Z,1014.32
2016-12-25T01:43:32.346Z,1014.44
2016-12-25T01:44:12.846Z,1014.39
2016-12-25T01:44:53.319Z,1014.28
2016-12-25T01:45:33.802Z,1014.26
2016-12-25T01:46:14.304Z,1014.23
2016-12-25T01:46:54.789Z,1014.39
2016-12-25T01:47:35.269Z,1014.1
2016-12-25T01:48:15.727Z,1014.25
2016-12-25T01:48:56.212Z,1014.2
2016-12-25T01:49:36.705Z,1014.33
2016-12-25T01:50:17.206Z,1014.26
2016-12-25T01:50:57.699Z,1014.19
2016-12-25T01:51:38.159Z,1014.27
2016-12-25T01:52:18.638Z,1014.24
2016-12-25T01:52:59.125Z,1014.21
2016-12-25T01:53:39.613Z,1014.25
2016-12-25T01:54:20.104Z,1014.16
2016-12-25T01:55:00.601Z,1014.13
2016-12-25T01:55:41.116Z,1014.13
2016-12-25T01:56:23.086Z,1014.12
2016-12-25T01:57:03.572Z,1014.24
2016-12-25T01:57:44.617Z,1014.13
2016-12-25T01:58:25.120Z,1014.2
2016-12-25T01:59:05.635Z,1014.19
2016-12-25T01:59:46.099Z,1014.14
2016-12-25T02:00:26.559Z,1014.18
2016-12-25T02:02:46.415Z,1014.22
2016-12-25T02:05:30.440Z,1014.15
2016-12-25T02:07:51.338Z,1014.21
2016-12-25T02:10:32.066Z,1014.24
2016-12-25T02:11:20.641Z,1014.23
2016-12-25T02:12:09.123Z,1014.21
2016-12-25T02:12:58.007Z,1014.2
2016-12-25T02:13:46.830Z,1014.17
2016-12-25T02:14:35.148Z,1014.18
2016-12-25T02:15:24.031Z,1014.14
2016-12-25T02:16:12.532Z,1014.17
2016-12-25T02:17:01.313Z,1014.18
2016-12-25T02:17:49.188Z,1014.15
2016-12-25T02:18:38.380Z,1014.09
2016-12-25T02:19:26.416Z,1014.18
2016-12-25T02:20:15.374Z,1014.1
2016-12-25T02:21:04.331Z,1014.16
2016-12-25T02:21:52.634Z,1014.15
2016-12-25T02:22:41.488Z,1014.08
2016-12-25T02:23:30.379Z,1014.09
2016-12-25T02:24:18.555Z,1014.05
2016-12-25T02:26:40.183Z,1014.05
2016-12-25T02:27:29.087Z,1013.99
2016-12-25T02:28:17.307Z,1014.06
2016-12-25T02:29:05.762Z,1013.99
2016-12-25T02:29:55.121Z,1014.06
2016-12-25T02:30:43.406Z,1014.06
2016-12-25T02:31:32.121Z,1014.14
2016-12-25T02:32:20.790Z,1014.07
2016-12-25T02:33:09.899Z,1014.24
2016-12-25T02:33:58.590Z,1014.18
2016-12-25T02:34:46.986Z,1014.19
2016-12-25T02:35:35.644Z,1014.23
2016-12-25T02:36:23.942Z,1014.29
2016-12-25T02:37:11.675Z,1014.21
2016-12-25T02:38:00.399Z,1014.28
2016-12-25T02:38:49.229Z,1014.28
2016-12-25T02:39:37.613Z,1014.28
2016-12-25T02:40:26.480Z,1014.36
2016-12-25T02:41:14.838Z,1014.16
2016-12-25T02:42:03.688Z,1014.16
2016-12-25T02:42:52.316Z,1014.17
2016-12-25T02:43:41.191Z,1014.09
2016-12-25T02:44:29.357Z,1014.27
2016-12-25T02:45:17.973Z,1014.18
2016-12-25T02:46:06.688Z,1014.02
2016-12-25T02:46:55.357Z,1014.08
2016-12-25T02:47:43.895Z,1014.09
2016-12-25T02:48:32.978Z,1014.2
2016-12-25T02:49:21.145Z,1014.17
2016-12-25T02:50:04.478Z,1014.23
2016-12-25T02:50:44.969Z,1014.14
2016-12-25T02:51:25.454Z,1014.17
2016-12-25T02:52:05.917Z,1014.13
2016-12-25T02:52:46.438Z,1014.11
2016-12-25T02:53:26.895Z,1014.11
2016-12-25T02:54:07.350Z,1014.15
2016-12-25T02:54:47.826Z,1014.07
2016-12-25T02:55:28.304Z,1014.16
2016-12-25T02:56:08.782Z,1014.2
2016-12-25T02:56:49.273Z,1014.11
2016-12-25T02:57:29.743Z,1014.15
2016-12-25T02:58:10.245Z,1014.12
2016-12-25T02:58:50.649Z,1014.14
2016-12-25T02:59:31.142Z,1014.12
2016-12-25T03:00:11.604Z,1014.07
2016-12-25T03:00:52.087Z,1014.09
2016-12-25T03:01:32.592Z,1014.14
2016-12-25T03:02:13.022Z,1014.08
2016-12-25T03:02:53.500Z,1014.04
2016-12-25T03:03:34.010Z,1014.1
2016-12-25T03:04:14.440Z,1014.07
2016-12-25T03:04:54.911Z,1014.04
2016-12-25T03:05:35.373Z,1014.04
2016-12-25T03:06:15.879Z,1014.01
2016-12-25T03:06:56.351Z,1014.04
2016-12-25T03:07:36.822Z,1013.96
2016-12-25T03:08:17.303Z,1013.92
2016-12-25T03:08:57.743Z,1013.99
2016-12-25T03:09:38.226Z,1013.97
2016-12-25T03:10:18.663Z,1013.94
2016-12-25T03:10:59.175Z,1013.96
2016-12-25T03:11:39.704Z,1013.9
2016-12-25T03:12:20.147Z,1013.97
2016-12-25T03:13:00.651Z,1013.97
2016-12-25T03:13:41.131Z,1013.92
2016-12-25T03:14:21.631Z,1013.91
2016-12-25T03:15:02.204Z,1013.97
2016-12-25T03:15:42.711Z,1013.94
2016-12-25T03:16:23.163Z,1013.87
2016-12-25T03:17:04.236Z,1013.9
2016-12-25T03:17:44.732Z,1013.85
2016-12-25T03:18:25.213Z,1013.78
2016-12-25T03:19:05.708Z,1013.76
2016-12-25T03:19:46.254Z,1013.74
2016-12-25T03:20:26.694Z,1013.78
2016-12-25T03:21:07.144Z,1013.77
2016-12-25T03:21:47.648Z,1013.79
2016-12-25T03:22:28.137Z,1013.78
2016-12-25T03:23:08.595Z,1013.78
2016-12-25T03:23:49.078Z,1013.77
2016-12-25T03:24:29.537Z,1013.76
2016-12-25T03:25:10.042Z,1013.81
2016-12-25T03:25:50.513Z,1013.81
2016-12-25T03:26:30.922Z,1013.86
2016-12-25T03:27:11.428Z,1013.83
2016-12-25T03:27:51.918Z,1013.87
2016-12-25T03:28:32.466Z,1013.8
2016-12-25T03:29:12.942Z,1013.8
2016-12-25T03:29:53.413Z,1013.81
2016-12-25T03:30:33.909Z,1013.75
2016-12-25T03:31:14.418Z,1013.78
2016-12-25T03:31:54.876Z,1013.78
2016-12-25T03:32:35.336Z,1013.81
2016-12-25T03:33:15.843Z,1013.79
2016-12-25T03:33:56.287Z,1013.76
2016-12-25T03:34:36.772Z,1013.73
2016-12-25T03:35:17.259Z,1013.72
2016-12-25T03:35:57.913Z,1013.74
2016-12-25T03:36:38.385Z,1013.76
2016-12-25T03:37:18.881Z,1013.7
2016-12-25T03:37:59.365Z,1013.69
2016-12-25T03:38:39.842Z,1013.71
2016-12-25T03:39:20.346Z,1013.67
2016-12-25T03:40:00.822Z,1013.66
2016-12-25T03:40:41.258Z,1013.64
2016-12-25T03:41:21.795Z,1013.62
2016-12-25T03:42:02.248Z,1013.61
2016-12-25T03:42:42.735Z,1013.62
2016-12-25T03:43:23.241Z,1013.6
2016-12-25T03:44:03.716Z,1013.58
2016-12-25T03:44:44.195Z,1013.65
2016-12-25T03:45:24.679Z,1013.6
2016-12-25T03:46:05.132Z,1013.58
2016-12-25T03:46:45.623Z,1013.61
2016-12-25T03:47:26.123Z,1013.55
2016-12-25T03:48:06.566Z,1013.58
2016-12-25T03:48:47.043Z,1013.59
2016-12-25T03:49:27.581Z,1013.6
2016-12-25T03:50:08.034Z,1013.56
2016-12-25T03:50:48.477Z,1013.63
2016-12-25T03:51:28.928Z,1013.6
2016-12-25T03:52:09.408Z,1013.6
2016-12-25T03:52:49.861Z,1013.54
2016-12-25T03:53:30.346Z,1013.6
2016-12-25T03:54:10.873Z,1013.6
2016-12-25T03:54:51.300Z,1013.64
2016-12-25T03:55:31.817Z,1013.68
2016-12-25T03:56:12.281Z,1013.61
2016-12-25T03:56:52.768Z,1013.63
2016-12-25T03:57:33.254Z,1013.63
2016-12-25T03:58:13.732Z,1013.63
2016-12-25T03:58:54.226Z,1013.61
2016-12-25T03:59:35.211Z,1013.68
2016-12-25T04:00:16.386Z,1013.64
2016-12-25T04:00:56.904Z,1013.66
2016-12-25T04:01:37.379Z,1013.6
2016-12-25T04:02:17.839Z,1013.57
2016-12-25T04:02:58.292Z,1013.54
2016-12-25T04:03:38.768Z,1013.57
2016-12-25T04:04:19.251Z,1013.58
2016-12-25T04:04:59.720Z,1013.65
2016-12-25T04:05:40.196Z,1013.61
2016-12-25T04:06:20.703Z,1013.65
2016-12-25T04:07:01.151Z,1013.64
2016-12-25T04:07:41.674Z,1013.67
2016-12-25T04:08:22.985Z,1013.64
2016-12-25T04:09:03.464Z,1013.71
2016-12-25T04:09:43.914Z,1013.63
2016-12-25T04:12:22.512Z,1013.63
2016-12-25T04:13:11.000Z,1013.57
2016-12-25T04:13:59.989Z,1013.56
2016-12-25T04:14:48.266Z,1013.59
2016-12-25T04:15:36.857Z,1013.54
2016-12-25T04:16:25.479Z,1013.58
2016-12-25T04:17:14.749Z,1013.59
2016-12-25T04:18:03.147Z,1013.59
2016-12-25T04:18:52.219Z,1013.55
2016-12-25T04:19:40.967Z,1013.59
2016-12-25T04:20:29.469Z,1013.51
2016-12-25T04:21:17.796Z,1013.56
2016-12-25T04:22:07.363Z,1013.51
2016-12-25T04:22:56.063Z,1013.54
2016-12-25T04:23:44.744Z,1013.49
2016-12-25T04:24:33.249Z,1013.48
2016-12-25T04:25:22.028Z,1013.59
2016-12-25T04:26:10.561Z,1013.53
2016-12-25T04:26:59.514Z,1013.55
2016-12-25T04:27:48.529Z,1013.61
2016-12-25T04:28:36.862Z,1013.5
2016-12-25T04:29:25.228Z,1013.5
2016-12-25T04:30:14.071Z,1013.56
2016-12-25T04:31:02.545Z,1013.52
2016-12-25T04:31:51.479Z,1013.46
2016-12-25T04:32:40.403Z,1013.53
2016-12-25T04:33:28.788Z,1013.44
2016-12-25T04:34:17.490Z,1013.44
2016-12-25T04:35:06.488Z,1013.46
2016-12-25T04:35:55.041Z,1013.45
2016-12-25T04:36:44.007Z,1013.43
2016-12-25T04:37:32.032Z,1013.42
2016-12-25T04:38:20.956Z,1013.47
2016-12-25T04:39:09.900Z,1013.35
2016-12-25T04:39:58.214Z,1013.35
2016-12-25T04:40:47.496Z,1013.34
2016-12-25T04:41:35.701Z,1013.33
2016-12-25T04:42:24.567Z,1013.34
2016-12-25T04:43:13.131Z,1013.35
2016-12-25T04:44:01.843Z,1013.38
2016-12-25T04:44:50.903Z,1013.37
2016-12-25T04:45:39.238Z,1013.39
2016-12-25T04:46:28.445Z,1013.36
2016-12-25T04:47:16.738Z,1013.44
2016-12-25T04:48:05.609Z,1013.45
2016-12-25T04:48:54.389Z,1013.42
2016-12-25T04:49:42.876Z,1013.39
2016-12-25T04:50:31.479Z,1013.41
2016-12-25T04:51:20.389Z,1013.43
2016-12-25T04:52:08.697Z,1013.4
2016-12-25T04:52:57.568Z,1013.4
2016-12-25T04:53:46.475Z,1013.43
2016-12-25T04:54:35.185Z,1013.4
2016-12-25T04:55:23.911Z,1013.38
2016-12-25T04:56:12.597Z,1013.38
2016-12-25T04:57:01.098Z,1013.39
2016-12-25T04:57:49.960Z,1013.35
2016-12-25T04:58:38.249Z,1013.4
2016-12-25T04:59:27.506Z,1013.33
2016-12-25T05:00:15.966Z,1013.26
2016-12-25T05:01:04.298Z,1013.36
2016-12-25T05:01:52.837Z,1013.4
2016-12-25T05:02:41.900Z,1013.36
2016-12-25T05:03:30.721Z,1013.36
2016-12-25T05:04:19.073Z,1013.34
2016-12-25T05:05:07.920Z,1013.42
2016-12-25T05:05:56.184Z,1013.38
2016-12-25T05:06:45.233Z,1013.38
2016-12-25T05:07:33.780Z,1013.31
2016-12-25T05:08:22.441Z,1013.36
2016-12-25T05:09:11.526Z,1013.24
2016-12-25T05:10:00.030Z,1013.3
2016-12-25T05:10:48.219Z,1013.38
2016-12-25T05:11:37.043Z,1013.35
2016-12-25T05:12:25.994Z,1013.35
2016-12-25T05:13:14.570Z,1013.3
2016-12-25T05:14:03.139Z,1013.3
2016-12-25T05:14:51.709Z,1013.29
2016-12-25T05:15:40.640Z,1013.26
2016-12-25T05:16:29.285Z,1013.31
2016-12-25T05:17:17.890Z,1013.26
2016-12-25T05:18:06.624Z,1013.29
2016-12-25T05:18:55.221Z,1013.24
2016-12-25T05:19:44.500Z,1013.25
2016-12-25T05:20:32.729Z,1013.19
2016-12-25T05:21:21.531Z,1013.17
2016-12-25T05:22:10.100Z,1013.19
2016-12-25T05:22:58.945Z,1013.41
2016-12-25T05:23:47.174Z,1013.42
2016-12-25T05:24:36.171Z,1013.41
2016-12-25T05:25:24.750Z,1013.34
2016-12-25T05:26:13.141Z,1013.29
2016-12-25T05:27:01.887Z,1013.38
2016-12-25T05:27:50.249Z,1013.38
2016-12-25T05:28:39.395Z,1013.23
2016-12-25T05:29:27.756Z,1013.17
2016-12-25T05:30:16.550Z,1013.32
2016-12-25T05:31:05.086Z,1013.17
2016-12-25T05:31:53.677Z,1013.19
2016-12-25T05:32:42.908Z,1013.1
2016-12-25T05:33:31.589Z,1013.14
2016-12-25T05:34:19.874Z,1013.13
2016-12-25T05:35:08.880Z,1013.15
2016-12-25T05:35:57.113Z,1013.1
2016-12-25T05:36:45.762Z,1013.09
2016-12-25T05:37:34.651Z,1013.14
2016-12-25T05:38:23.530Z,1013.12
2016-12-25T05:39:12.192Z,1013.12
2016-12-25T05:40:01.171Z,1013.08
2016-12-25T05:40:50.010Z,1013.14
2016-12-25T05:41:38.175Z,1013.1
2016-12-25T05:42:27.046Z,1013.1
2016-12-25T05:43:15.996Z,1013.07
2016-12-25T05:44:04.169Z,1013.13
2016-12-25T05:44:53.234Z,1013.3
2016-12-25T05:45:41.570Z,1013.1
2016-12-25T05:46:30.136Z,1013.11
2016-12-25T05:47:18.743Z,1013.16
2016-12-25T05:48:07.547Z,1013.1
2016-12-25T05:48:56.193Z,1013.08
2016-12-25T05:49:45.091Z,1013.09
2016-12-25T05:50:33.681Z,1013.19
2016-12-25T05:51:22.523Z,1013.06
2016-12-25T05:52:11.406Z,1013.13
2016-12-25T05:53:00.059Z,1013.04
2016-12-25T05:53:48.940Z,1013.25
2016-12-25T05:54:37.655Z,1013.2
2016-12-25T05:55:26.087Z,1013.17
2016-12-25T05:56:14.548Z,1013.04
2016-12-25T05:57:03.505Z,1013.19
2016-12-25T05:57:52.090Z,1013.23
2016-12-25T05:58:40.923Z,1013.26
2016-12-25T05:59:29.331Z,1013.38
2016-12-25T06:00:18.052Z,1013.17
2016-12-25T06:01:06.718Z,1013.24
2016-12-25T06:01:55.536Z,1013.23
2016-12-25T06:02:44.067Z,1013.18
2016-12-25T06:03:32.488Z,1013.22
2016-12-25T06:04:21.230Z,1013.21
2016-12-25T06:05:10.034Z,1013.24
2016-12-25T06:05:58.854Z,1013.37
2016-12-25T06:06:47.538Z,1013.27
2016-12-25T06:07:36.143Z,1013.31
2016-12-25T06:08:24.674Z,1013.34
2016-12-25T06:09:13.111Z,1013.29
2016-12-25T06:10:02.322Z,1013.5
2016-12-25T06:10:50.737Z,1013.23
2016-12-25T06:11:39.307Z,1013.35
2016-12-25T06:12:28.159Z,1013.28
2016-12-25T06:13:16.775Z,1013.28
2016-12-25T06:14:05.757Z,1013.2
2016-12-25T06:14:54.243Z,1013.26
2016-12-25T06:15:43.280Z,1013.2
2016-12-25T06:16:31.759Z,1013.27
2016-12-25T06:17:20.252Z,1013.22
2016-12-25T06:18:09.028Z,1013.3
2016-12-25T06:18:57.354Z,1013.45
2016-12-25T06:19:46.120Z,1013.17
2016-12-25T06:20:35.103Z,1013.35
2016-12-25T06:21:23.493Z,1013.14
2016-12-25T06:22:12.266Z,1013.16
2016-12-25T06:23:00.874Z,1013.3
2016-12-25T06:23:49.626Z,1013.19
2016-12-25T06:24:38.293Z,1013.21
2016-12-25T06:25:27.205Z,1013.29
2016-12-25T06:26:15.562Z,1013.16
2016-12-25T06:27:04.562Z,1013.21
2016-12-25T06:27:53.047Z,1013.24
2016-12-25T06:28:41.656Z,1013.38
2016-12-25T06:29:30.251Z,1013.27
2016-12-25T06:30:19.379Z,1013.27
2016-12-25T06:31:07.791Z,1013.16
2016-12-25T06:31:56.607Z,1013.17
2016-12-25T06:32:45.420Z,1013.18
2016-12-25T06:33:33.800Z,1013.19
2016-12-25T06:34:22.727Z,1013.05
2016-12-25T06:35:11.152Z,1013.07
2016-12-25T06:35:59.768Z,1012.91
2016-12-25T06:36:48.124Z,1013.02
2016-12-25T06:37:37.384Z,1012.88
2016-12-25T06:38:26.122Z,1012.89
2016-12-25T06:39:14.562Z,1012.95
2016-12-25T06:40:03.395Z,1012.89
2016-12-25T06:40:51.605Z,1012.85
2016-12-25T06:41:41.026Z,1012.84
2016-12-25T06:42:29.626Z,1012.92
2016-12-25T06:43:18.339Z,1012.85
2016-12-25T06:44:07.079Z,1012.8
2016-12-25T06:44:55.971Z,1012.87
2016-12-25T06:45:44.999Z,1012.93
2016-12-25T06:46:33.288Z,1012.84
2016-12-25T06:47:22.548Z,1012.82
2016-12-25T06:48:10.670Z,1012.76
2016-12-25T06:48:59.608Z,1012.84
2016-12-25T06:49:48.014Z,1012.86
2016-12-25T06:50:37.147Z,1012.77
2016-12-25T06:51:25.986Z,1012.81
2016-12-25T06:52:14.568Z,1012.77
2016-12-25T06:53:03.163Z,1012.75
2016-12-25T06:53:51.879Z,1012.78
2016-12-25T06:54:40.612Z,1012.71
2016-12-25T06:55:29.381Z,1012.73
2016-12-25T06:56:17.631Z,1012.82
2016-12-25T06:57:06.556Z,1012.81
2016-12-25T06:57:55.420Z,1012.76
2016-12-25T06:58:43.811Z,1012.77
2016-12-25T06:59:32.413Z,1012.73
2016-12-25T07:00:21.114Z,1012.65
2016-12-25T07:01:10.071Z,1012.76
2016-12-25T07:01:58.901Z,1012.66
2016-12-25T07:02:47.290Z,1012.77
2016-12-25T07:03:36.115Z,1012.65
2016-12-25T07:04:24.684Z,1012.7
2016-12-25T07:05:13.593Z,1012.68
2016-12-25T07:06:02.123Z,1012.7
2016-12-25T07:06:51.509Z,1012.62
2016-12-25T07:07:39.668Z,1012.59
2016-12-25T07:08:28.240Z,1012.64
2016-12-25T07:09:16.753Z,1012.59
2016-12-25T07:10:05.346Z,1012.54
2016-12-25T07:10:54.408Z,1012.54
2016-12-25T07:11:42.750Z,1012.68
2016-12-25T07:12:31.515Z,1012.68
2016-12-25T07:13:20.477Z,1012.71
2016-12-25T07:14:08.949Z,1012.66
2016-12-25T07:14:57.376Z,1012.73
2016-12-25T07:15:46.484Z,1012.61
2016-12-25T07:16:35.018Z,1012.73
2016-12-25T07:17:23.963Z,1012.62
2016-12-25T07:18:12.176Z,1012.84
2016-12-25T07:19:01.084Z,1012.68
2016-12-25T07:19:49.905Z,1012.75
2016-12-25T07:20:38.286Z,1012.71
2016-12-25T07:21:27.485Z,1012.75
2016-12-25T07:22:16.577Z,1012.71
2016-12-25T07:23:04.658Z,1012.7
2016-12-25T07:23:53.553Z,1012.67
2016-12-25T07:24:42.171Z,1012.71
2016-12-25T07:25:30.789Z,1012.68
2016-12-25T07:26:19.511Z,1012.68
2016-12-25T07:27:08.409Z,1012.68
2016-12-25T07:27:56.951Z,1012.65
2016-12-25T07:28:46.002Z,1012.69
2016-12-25T07:29:34.292Z,1012.65
2016-12-25T07:30:23.381Z,1012.63
2016-12-25T07:31:11.742Z,1012.61
2016-12-25T07:32:00.605Z,1012.67
2016-12-25T07:32:49.296Z,1012.61
2016-12-25T07:33:38.393Z,1012.59
2016-12-25T07:34:27.500Z,1012.63
2016-12-25T07:35:15.895Z,1012.62
2016-12-25T07:36:04.334Z,1012.63
2016-12-25T07:36:53.081Z,1012.6
2016-12-25T07:37:41.620Z,1012.7
2016-12-25T07:38:30.686Z,1012.62
2016-12-25T07:39:18.863Z,1012.67
2016-12-25T07:40:08.017Z,1012.65
2016-12-25T07:40:56.288Z,1012.62
2016-12-25T07:41:45.042Z,1012.6
2016-12-25T07:42:33.968Z,1012.59
2016-12-25T07:43:22.197Z,1012.69
2016-12-25T07:44:10.742Z,1012.6
2016-12-25T07:44:59.935Z,1012.56
2016-12-25T07:45:48.117Z,1012.58
2016-12-25T07:46:36.692Z,1012.61
2016-12-25T07:47:25.674Z,1012.68
2016-12-25T07:48:13.952Z,1012.83
2016-12-25T07:49:03.105Z,1012.69
2016-12-25T07:49:51.516Z,1012.52
2016-12-25T07:50:40.359Z,1012.64
2016-12-25T07:51:28.796Z,1012.65
2016-12-25T07:52:17.967Z,1012.59
2016-12-25T07:53:06.108Z,1012.75
2016-12-25T07:53:55.012Z,1012.56
2016-12-25T07:54:43.949Z,1012.52
2016-12-25T07:55:32.152Z,1012.65
2016-12-25T07:56:20.680Z,1012.54
2016-12-25T07:57:09.623Z,1012.58
2016-12-25T07:57:57.985Z,1012.55
2016-12-25T07:58:47.468Z,1012.66
2016-12-25T07:59:35.493Z,1012.72
2016-12-25T08:00:24.224Z,1012.65
2016-12-25T08:01:13.041Z,1012.5
2016-12-25T08:02:01.914Z,1012.7
2016-12-25T08:02:50.161Z,1012.56
2016-12-25T08:03:39.166Z,1012.52
2016-12-25T08:04:27.669Z,1012.6
2016-12-25T08:05:16.951Z,1012.52
2016-12-25T08:06:05.230Z,1012.66
2016-12-25T08:06:54.064Z,1012.59
2016-12-25T08:07:42.679Z,1012.54
2016-12-25T08:08:31.087Z,1012.56
2016-12-25T08:09:20.034Z,1012.63
2016-12-25T08:10:08.571Z,1012.57
2016-12-25T08:10:57.482Z,1012.63
2016-12-25T08:11:45.699Z,1012.62
2016-12-25T08:12:34.311Z,1012.62
2016-12-25T08:13:23.406Z,1012.52
2016-12-25T08:14:11.962Z,1012.63
2016-12-25T08:15:00.235Z,1012.66
2016-12-25T08:15:48.790Z,1012.7
2016-12-25T08:16:37.899Z,1012.57
2016-12-25T08:17:26.149Z,1012.73
2016-12-25T08:18:14.770Z,1012.65
2016-12-25T08:19:03.988Z,1012.69
2016-12-25T08:19:52.205Z,1012.73
2016-12-25T08:20:41.010Z,1012.8
2016-12-25T08:21:29.886Z,1012.72
2016-12-25T08:22:18.276Z,1012.71
2016-12-25T08:23:07.074Z,1012.76
2016-12-25T08:23:56.009Z,1012.76
2016-12-25T08:24:44.508Z,1012.82
2016-12-25T08:25:32.863Z,1012.71
2016-12-25T08:26:21.376Z,1012.73
2016-12-25T08:27:10.631Z,1012.66
2016-12-25T08:27:59.059Z,1012.76
2016-12-25T08:28:47.990Z,1012.7
2016-12-25T08:29:36.177Z,1012.74
2016-12-25T08:30:25.484Z,1012.83
2016-12-25T08:31:13.663Z,1012.8
2016-12-25T08:32:02.389Z,1012.72
2016-12-25T08:32:51.040Z,1012.72
2016-12-25T08:33:39.458Z,1012.67
2016-12-25T08:34:28.402Z,1012.71
2016-12-25T08:35:17.102Z,1012.73
2016-12-25T08:36:05.784Z,1012.64
2016-12-25T08:36:54.581Z,1012.65
2016-12-25T08:37:43.632Z,1012.67
2016-12-25T08:38:31.879Z,1012.6
2016-12-25T08:39:20.924Z,1012.64
2016-12-25T08:40:09.180Z,1012.63
2016-12-25T08:40:57.747Z,1012.55
2016-12-25T08:41:46.803Z,1012.56
2016-12-25T08:42:35.444Z,1012.58
2016-12-25T08:43:24.077Z,1012.62
2016-12-25T08:44:12.890Z,1012.56
2016-12-25T08:45:01.199Z,1012.55
2016-12-25T08:45:49.983Z,1012.6
2016-12-25T08:46:38.913Z,1012.62
2016-12-25T08:47:27.166Z,1012.5
2016-12-25T08:48:16.007Z,1012.54
2016-12-25T08:49:04.593Z,1012.58
2016-12-25T08:49:53.201Z,1012.61
2016-12-25T08:50:41.992Z,1012.57
2016-12-25T08:51:30.559Z,1012.52
2016-12-25T08:52:19.243Z,1012.61
2016-12-25T08:53:07.847Z,1012.63
2016-12-25T08:53:56.695Z,1012.63
2016-12-25T08:54:45.182Z,1012.67
2016-12-25T08:55:34.051Z,1012.6
2016-12-25T08:56:22.597Z,1012.47
2016-12-25T08:57:11.491Z,1012.51
2016-12-25T08:57:59.811Z,1012.49
2016-12-25T08:58:48.521Z,1012.57
2016-12-25T08:59:36.915Z,1012.53
2016-12-25T09:00:25.897Z,1012.54
2016-12-25T09:01:14.824Z,1012.69
2016-12-25T09:02:03.178Z,1012.65
2016-12-25T09:02:52.001Z,1012.64
2016-12-25T09:03:40.619Z,1012.64
2016-12-25T09:04:29.297Z,1012.49
2016-12-25T09:05:18.450Z,1012.5
2016-12-25T09:06:06.655Z,1012.52
2016-12-25T09:06:55.543Z,1012.55
2016-12-25T09:07:44.072Z,1012.65
2016-12-25T09:08:32.609Z,1012.65
2016-12-25T09:09:21.660Z,1012.55
2016-12-25T09:10:10.412Z,1012.53
2016-12-25T09:10:59.291Z,1012.56
2016-12-25T09:11:48.121Z,1012.59
2016-12-25T09:12:37.002Z,1012.58
2016-12-25T09:13:25.202Z,1012.52
2016-12-25T09:14:13.812Z,1012.54
2016-12-25T09:15:02.974Z,1012.41
2016-12-25T09:15:51.370Z,1012.53
2016-12-25T09:16:39.667Z,1012.44
2016-12-25T09:17:28.574Z,1012.54
2016-12-25T09:18:17.424Z,1012.46
2016-12-25T09:19:05.770Z,1012.4
2016-12-25T09:19:55.017Z,1012.52
2016-12-25T09:20:43.191Z,1012.58
2016-12-25T09:21:31.951Z,1012.51
2016-12-25T09:22:20.841Z,1012.59
2016-12-25T09:23:09.359Z,1012.52
2016-12-25T09:23:57.902Z,1012.63
2016-12-25T09:24:46.800Z,1012.52
2016-12-25T09:25:35.146Z,1012.51
2016-12-25T09:26:24.007Z,1012.5
2016-12-25T09:27:13.008Z,1012.51
2016-12-25T09:28:01.306Z,1012.57
2016-12-25T09:28:50.253Z,1012.54
2016-12-25T09:29:38.694Z,1012.65
2016-12-25T09:30:27.403Z,1012.67
2016-12-25T09:31:16.212Z,1012.48